createdAt,value
2018-09-26T00:00:57.084Z,5.90
2018-09-26T00:01:57.097Z,5.80
2018-09-26T00:02:57.050Z,6.00
2018-09-26T00:03:57.070Z,6.10
2018-09-26T00:04:57.029Z,5.90
2018-09-26T00:05:57.015Z,6.60
2018-09-26T00:06:57.008Z,6.40
2018-09-26T00:07:57.026Z,6.90
2018-09-26T00:08:57.014Z,7.10
2018-09-26T00:09:56.976Z,5.20
2018-09-26T00:10:56.975Z,5.40
2018-09-26T00:11:56.946Z,5.60
2018-09-26T00:12:56.937Z,5.60
2018-09-26T00:13:57.012Z,5.90
2018-09-26T00:14:56.969Z,5.40
2018-09-26T00:15:56.911Z,5.70
2018-09-26T00:16:56.903Z,5.90
2018-09-26T00:17:56.890Z,5.80
2018-09-26T00:18:56.918Z,5.30
2018-09-26T00:19:56.896Z,5.40
2018-09-26T00:20:56.858Z,5.40
2018-09-26T00:21:56.844Z,4.90
2018-09-26T00:22:56.890Z,4.00
2018-09-26T00:23:56.827Z,4.20
2018-09-26T00:24:56.812Z,4.40
2018-09-26T00:25:56.818Z,4.30
2018-09-26T00:26:56.785Z,3.90
2018-09-26T00:27:56.830Z,4.00
2018-09-26T00:28:56.765Z,4.00
2018-09-26T00:29:56.749Z,4.30
2018-09-26T00:30:56.763Z,3.70
2018-09-26T00:31:56.727Z,3.70
2018-09-26T00:32:56.737Z,3.80
2018-09-26T00:33:56.731Z,3.70
2018-09-26T00:34:56.694Z,3.50
2018-09-26T00:35:56.829Z,3.70
2018-09-26T00:36:56.673Z,3.20
2018-09-26T00:37:56.663Z,3.10
2018-09-26T00:38:56.702Z,3.60
2018-09-26T00:39:56.641Z,3.50
2018-09-26T00:40:56.662Z,3.40
2018-09-26T00:41:56.617Z,3.40
2018-09-26T00:42:56.607Z,3.50
2018-09-26T00:43:56.598Z,4.10
2018-09-26T00:44:56.592Z,3.30
2018-09-26T00:45:56.613Z,3.00
2018-09-26T00:46:56.608Z,3.20
2018-09-26T00:47:56.552Z,3.60
2018-09-26T00:48:56.563Z,3.50
2018-09-26T00:49:56.534Z,3.70
2018-09-26T00:50:56.580Z,3.80
2018-09-26T00:51:56.516Z,3.70
2018-09-26T00:52:56.507Z,3.70
2018-09-26T00:53:56.535Z,4.20
2018-09-26T00:54:56.484Z,3.80
2018-09-26T00:55:56.491Z,3.80
2018-09-26T00:56:56.484Z,4.50
2018-09-26T00:57:56.447Z,4.60
2018-09-26T00:58:56.443Z,4.40
2018-09-26T00:59:56.453Z,4.20
2018-09-26T01:00:56.451Z,4.40
2018-09-26T01:01:56.407Z,4.80
2018-09-26T01:02:56.441Z,4.80
2018-09-26T01:03:56.379Z,4.80
2018-09-26T01:04:56.374Z,4.60
2018-09-26T01:05:56.384Z,4.30
2018-09-26T01:06:56.412Z,4.90
2018-09-26T01:07:56.373Z,4.50
2018-09-26T01:08:56.326Z,4.20
2018-09-26T01:09:56.387Z,4.10
2018-09-26T01:10:56.394Z,3.90
2018-09-26T01:11:56.320Z,3.90
2018-09-26T01:12:56.324Z,3.30
2018-09-26T01:13:56.277Z,3.20
2018-09-26T01:14:56.312Z,3.50
2018-09-26T01:15:56.277Z,3.20
2018-09-26T01:16:56.239Z,3.40
2018-09-26T01:17:56.230Z,3.40
2018-09-26T01:18:56.217Z,2.90
2018-09-26T01:19:56.222Z,3.00
2018-09-26T01:20:56.239Z,2.70
2018-09-26T01:21:56.236Z,3.30
2018-09-26T01:22:56.174Z,3.10
2018-09-26T01:23:56.173Z,2.90
2018-09-26T01:24:56.170Z,3.00
2018-09-26T01:25:56.221Z,3.10
2018-09-26T01:26:56.171Z,3.00
2018-09-26T01:27:56.121Z,2.70
2018-09-26T01:28:56.157Z,3.10
2018-09-26T01:29:56.105Z,2.90
2018-09-26T01:30:56.112Z,3.20
2018-09-26T01:31:56.091Z,3.20
2018-09-26T01:32:56.076Z,2.80
2018-09-26T01:33:56.121Z,3.20
2018-09-26T01:34:56.046Z,3.00
2018-09-26T01:35:56.075Z,3.10
2018-09-26T01:36:56.025Z,3.00
2018-09-26T01:37:56.015Z,3.50
2018-09-26T01:38:56.008Z,3.30
2018-09-26T01:39:56.118Z,4.00
2018-09-26T01:40:56.010Z,4.70
2018-09-26T01:41:55.984Z,5.50
2018-09-26T01:42:55.972Z,5.20
2018-09-26T01:43:55.955Z,5.10
2018-09-26T01:44:55.950Z,5.50
2018-09-26T01:45:55.956Z,5.00
2018-09-26T01:46:55.947Z,5.30
2018-09-26T01:47:55.957Z,4.90
2018-09-26T01:48:55.909Z,5.00
2018-09-26T01:49:55.941Z,4.40
2018-09-26T01:50:55.876Z,4.90
2018-09-26T01:51:55.888Z,5.30
2018-09-26T01:52:55.878Z,5.30
2018-09-26T01:53:55.846Z,5.10
2018-09-26T01:54:55.835Z,5.10
2018-09-26T01:55:55.859Z,5.30
2018-09-26T01:56:55.843Z,4.50
2018-09-26T01:57:55.801Z,5.40
2018-09-26T01:58:55.808Z,4.90
2018-09-26T01:59:55.783Z,4.50
2018-09-26T02:00:55.774Z,4.70
2018-09-26T02:01:55.762Z,4.40
2018-09-26T02:02:55.825Z,4.40
2018-09-26T02:03:55.743Z,4.60
2018-09-26T02:04:55.728Z,4.20
2018-09-26T02:05:55.740Z,4.40
2018-09-26T02:06:55.708Z,4.00
2018-09-26T02:07:55.718Z,3.80
2018-09-26T02:08:55.731Z,4.20
2018-09-26T02:09:55.678Z,3.80
2018-09-26T02:10:55.676Z,4.50
2018-09-26T02:11:55.651Z,4.00
2018-09-26T02:12:55.674Z,4.30
2018-09-26T02:13:55.699Z,4.20
2018-09-26T02:14:55.621Z,4.10
2018-09-26T02:15:55.629Z,4.40
2018-09-26T02:16:55.602Z,4.40
2018-09-26T02:17:55.607Z,5.10
2018-09-26T02:18:55.637Z,5.60
2018-09-26T02:19:55.599Z,4.90
2018-09-26T02:20:55.558Z,5.40
2018-09-26T02:21:55.593Z,3.80
2018-09-26T02:22:55.535Z,4.00
2018-09-26T02:23:55.551Z,3.80
2018-09-26T02:24:55.529Z,3.70
2018-09-26T02:25:55.540Z,3.70
2018-09-26T02:26:55.492Z,3.40
2018-09-26T02:27:55.482Z,3.50
2018-09-26T02:28:55.551Z,3.50
2018-09-26T02:29:55.471Z,3.70
2018-09-26T02:30:55.456Z,4.30
2018-09-26T02:31:55.441Z,3.80
2018-09-26T02:32:55.480Z,3.60
2018-09-26T02:33:55.425Z,3.90
2018-09-26T02:34:55.443Z,4.30
2018-09-26T02:35:55.403Z,3.50
2018-09-26T02:36:55.405Z,3.30
2018-09-26T02:37:55.425Z,3.70
2018-09-26T02:38:55.433Z,3.90
2018-09-26T02:39:55.387Z,3.90
2018-09-26T02:40:55.349Z,4.10
2018-09-26T02:41:55.337Z,3.90
2018-09-26T02:42:55.345Z,3.70
2018-09-26T02:43:55.317Z,3.90
2018-09-26T02:44:55.331Z,3.80
2018-09-26T02:45:55.317Z,3.50
2018-09-26T02:46:55.282Z,3.70
2018-09-26T02:47:55.270Z,3.60
2018-09-26T02:48:55.261Z,3.80
2018-09-26T02:49:55.287Z,3.80
2018-09-26T02:50:55.256Z,3.50
2018-09-26T02:51:55.235Z,3.80
2018-09-26T02:52:55.234Z,3.90
2018-09-26T02:53:55.222Z,3.70
2018-09-26T02:54:55.204Z,3.40
2018-09-26T02:55:55.339Z,3.40
2018-09-26T02:56:55.177Z,3.30
2018-09-26T02:57:55.176Z,2.90
2018-09-26T02:58:55.156Z,3.50
2018-09-26T02:59:55.163Z,3.80
2018-09-26T03:00:55.184Z,3.50
2018-09-26T03:01:55.156Z,3.60
2018-09-26T03:02:55.122Z,3.30
2018-09-26T03:03:55.122Z,3.40
2018-09-26T03:04:55.119Z,3.90
2018-09-26T03:05:55.080Z,3.40
2018-09-26T03:06:55.092Z,3.70
2018-09-26T03:07:55.164Z,3.40
2018-09-26T03:08:55.157Z,3.50
2018-09-26T03:09:55.054Z,3.70
2018-09-26T03:10:55.109Z,3.40
2018-09-26T03:11:55.069Z,3.10
2018-09-26T03:12:55.006Z,3.60
2018-09-26T03:13:55.000Z,3.60
2018-09-26T03:14:55.012Z,3.60
2018-09-26T03:15:54.974Z,3.50
2018-09-26T03:16:55.023Z,3.30
2018-09-26T03:17:54.956Z,3.40
2018-09-26T03:18:54.947Z,3.40
2018-09-26T03:19:54.977Z,3.30
2018-09-26T03:20:54.919Z,3.40
2018-09-26T03:21:54.912Z,3.20
2018-09-26T03:22:54.931Z,3.30
2018-09-26T03:23:54.903Z,3.50
2018-09-26T03:24:54.981Z,3.30
2018-09-26T03:25:54.889Z,3.50
2018-09-26T03:26:54.864Z,3.40
2018-09-26T03:27:54.881Z,4.00
2018-09-26T03:28:54.901Z,3.50
2018-09-26T03:29:54.824Z,3.60
2018-09-26T03:30:54.813Z,3.50
2018-09-26T03:31:54.804Z,3.70
2018-09-26T03:32:54.795Z,3.40
2018-09-26T03:33:54.815Z,3.60
2018-09-26T03:34:54.871Z,3.70
2018-09-26T03:35:54.763Z,3.10
2018-09-26T03:36:54.750Z,3.20
2018-09-26T03:37:54.739Z,3.70
2018-09-26T03:38:54.783Z,3.40
2018-09-26T03:39:54.744Z,3.60
2018-09-26T03:40:54.708Z,3.40
2018-09-26T03:41:54.702Z,3.40
2018-09-26T03:42:54.728Z,3.00
2018-09-26T03:43:54.767Z,3.00
2018-09-26T03:44:54.744Z,3.20
2018-09-26T03:45:54.687Z,3.20
2018-09-26T03:46:54.642Z,3.20
2018-09-26T03:47:54.705Z,3.20
2018-09-26T03:48:54.620Z,3.10
2018-09-26T03:49:54.648Z,3.10
2018-09-26T03:50:54.616Z,3.10
2018-09-26T03:51:54.596Z,3.20
2018-09-26T03:52:54.580Z,3.40
2018-09-26T03:53:54.658Z,3.40
2018-09-26T03:54:54.585Z,3.50
2018-09-26T03:55:54.605Z,3.20
2018-09-26T03:56:54.538Z,3.40
2018-09-26T03:57:54.546Z,3.20
2018-09-26T03:58:54.535Z,3.20
2018-09-26T03:59:54.544Z,3.40
2018-09-26T04:00:54.505Z,3.60
2018-09-26T04:01:54.490Z,3.40
2018-09-26T04:02:54.470Z,3.60
2018-09-26T04:03:54.471Z,3.60
2018-09-26T04:04:54.496Z,3.40
2018-09-26T04:05:54.516Z,3.00
2018-09-26T04:06:54.445Z,3.50
2018-09-26T04:07:54.479Z,3.70
2018-09-26T04:08:54.455Z,3.00
2018-09-26T04:09:54.396Z,3.30
2018-09-26T04:10:54.436Z,3.20
2018-09-26T04:11:54.462Z,3.80
2018-09-26T04:12:54.411Z,3.20
2018-09-26T04:13:54.354Z,3.40
2018-09-26T04:14:54.349Z,3.20
2018-09-26T04:15:54.335Z,3.50
2018-09-26T04:16:54.392Z,3.80
2018-09-26T04:17:54.322Z,3.10
2018-09-26T04:18:54.299Z,3.30
2018-09-26T04:19:54.322Z,3.20
2018-09-26T04:20:54.287Z,3.50
2018-09-26T04:21:54.298Z,3.50
2018-09-26T04:22:54.264Z,3.30
2018-09-26T04:23:54.249Z,3.40
2018-09-26T04:24:54.237Z,3.20
2018-09-26T04:25:54.231Z,3.40
2018-09-26T04:26:54.541Z,3.50
2018-09-26T04:27:54.253Z,3.70
2018-09-26T04:28:54.267Z,3.30
2018-09-26T04:29:54.186Z,3.20
2018-09-26T04:30:54.197Z,3.60
2018-09-26T04:31:54.302Z,4.00
2018-09-26T04:32:54.350Z,4.00
2018-09-26T04:33:54.252Z,3.60
2018-09-26T04:34:54.130Z,3.70
2018-09-26T04:35:54.128Z,3.90
2018-09-26T04:36:54.108Z,4.00
2018-09-26T04:37:54.171Z,3.60
2018-09-26T04:38:54.286Z,3.80
2018-09-26T04:39:54.082Z,3.80
2018-09-26T04:40:54.071Z,3.60
2018-09-26T04:41:54.106Z,3.50
2018-09-26T04:42:54.080Z,3.70
2018-09-26T04:43:54.040Z,3.60
2018-09-26T04:44:54.040Z,3.80
2018-09-26T04:45:54.027Z,4.00
2018-09-26T04:46:54.001Z,3.50
2018-09-26T04:47:53.993Z,3.50
2018-09-26T04:48:54.011Z,3.60
2018-09-26T04:49:54.005Z,3.60
2018-09-26T04:50:53.974Z,3.30
2018-09-26T04:51:53.952Z,2.80
2018-09-26T04:52:53.956Z,3.50
2018-09-26T04:53:53.985Z,3.50
2018-09-26T04:54:53.917Z,3.40
2018-09-26T04:55:53.918Z,3.20
2018-09-26T04:56:53.899Z,3.70
2018-09-26T04:57:53.972Z,3.50
2018-09-26T04:58:53.932Z,3.20
2018-09-26T04:59:53.881Z,3.40
2018-09-26T05:00:53.853Z,3.30
2018-09-26T05:01:53.850Z,3.90
2018-09-26T05:02:53.867Z,3.80
2018-09-26T05:03:53.877Z,3.50
2018-09-26T05:04:53.813Z,3.50
2018-09-26T05:05:53.800Z,3.30
2018-09-26T05:06:53.801Z,3.40
2018-09-26T05:07:53.781Z,3.50
2018-09-26T05:08:53.795Z,3.60
2018-09-26T05:09:53.871Z,4.00
2018-09-26T05:10:53.749Z,3.40
2018-09-26T05:11:53.746Z,3.80
2018-09-26T05:12:53.782Z,3.60
2018-09-26T05:13:53.721Z,3.50
2018-09-26T05:14:53.722Z,3.50
2018-09-26T05:15:53.737Z,3.90
2018-09-26T05:16:53.692Z,3.60
2018-09-26T05:17:53.679Z,3.90
2018-09-26T05:18:53.678Z,3.50
2018-09-26T05:19:53.674Z,3.40
2018-09-26T05:20:53.679Z,3.70
2018-09-26T05:21:53.635Z,3.60
2018-09-26T05:22:53.780Z,3.70
2018-09-26T05:23:53.636Z,3.80
2018-09-26T05:24:53.603Z,4.10
2018-09-26T05:25:53.629Z,3.80
2018-09-26T05:26:53.616Z,4.00
2018-09-26T05:27:53.569Z,3.90
2018-09-26T05:28:53.556Z,3.90
2018-09-26T05:29:53.575Z,3.70
2018-09-26T05:30:53.579Z,3.50
2018-09-26T05:31:53.525Z,3.80
2018-09-26T05:32:53.530Z,4.10
2018-09-26T05:33:53.507Z,4.10
2018-09-26T05:34:53.495Z,4.00
2018-09-26T05:35:53.512Z,4.50
2018-09-26T05:36:53.504Z,4.50
2018-09-26T05:37:53.467Z,5.10
2018-09-26T05:38:53.452Z,4.30
2018-09-26T05:39:53.445Z,5.00
2018-09-26T05:40:53.495Z,4.70
2018-09-26T05:41:53.515Z,4.60
2018-09-26T05:42:53.433Z,4.70
2018-09-26T05:43:53.402Z,4.50
2018-09-26T05:44:53.395Z,4.80
2018-09-26T05:45:53.380Z,4.80
2018-09-26T05:46:53.417Z,4.80
2018-09-26T05:47:53.384Z,4.90
2018-09-26T05:48:53.358Z,5.00
2018-09-26T05:49:53.351Z,4.80
2018-09-26T05:50:53.325Z,4.30
2018-09-26T05:51:53.312Z,4.40
2018-09-26T05:52:53.329Z,4.60
2018-09-26T05:53:53.291Z,4.70
2018-09-26T05:54:53.307Z,5.10
2018-09-26T05:55:53.269Z,5.30
2018-09-26T05:56:53.286Z,5.40
2018-09-26T05:57:53.283Z,5.20
2018-09-26T05:58:53.240Z,5.30
2018-09-26T05:59:53.226Z,5.30
2018-09-26T06:00:53.222Z,8.10
2018-09-26T06:01:53.226Z,6.80
2018-09-26T06:02:53.230Z,5.40
2018-09-26T06:03:53.190Z,5.50
2018-09-26T06:04:53.199Z,5.90
2018-09-26T06:05:53.171Z,5.60
2018-09-26T06:06:53.165Z,5.30
2018-09-26T06:07:53.144Z,5.10
2018-09-26T06:08:53.168Z,5.20
2018-09-26T06:09:53.130Z,6.30
2018-09-26T06:10:53.110Z,7.90
2018-09-26T06:11:53.100Z,8.40
2018-09-26T06:12:53.186Z,9.10
2018-09-26T06:13:53.078Z,7.30
2018-09-26T06:14:53.108Z,5.70
2018-09-26T06:15:53.065Z,5.00
2018-09-26T06:16:53.046Z,4.60
2018-09-26T06:17:53.041Z,4.80
2018-09-26T06:18:53.029Z,5.30
2018-09-26T06:19:53.036Z,8.30
2018-09-26T06:20:53.005Z,8.30
2018-09-26T06:21:52.996Z,10.20
2018-09-26T06:22:53.026Z,10.40
2018-09-26T06:23:52.978Z,8.00
2018-09-26T06:24:53.017Z,8.00
2018-09-26T06:25:52.967Z,8.10
2018-09-26T06:26:52.940Z,6.80
2018-09-26T06:27:52.936Z,6.00
2018-09-26T06:28:52.927Z,5.20
2018-09-26T06:29:52.905Z,5.50
2018-09-26T06:30:52.927Z,5.50
2018-09-26T06:31:52.899Z,4.90
2018-09-26T06:32:52.874Z,5.30
2018-09-26T06:33:52.874Z,5.80
2018-09-26T06:34:52.868Z,4.20
2018-09-26T06:35:52.919Z,4.80
2018-09-26T06:36:52.836Z,4.40
2018-09-26T06:37:52.820Z,4.40
2018-09-26T06:38:52.838Z,4.20
2018-09-26T06:39:52.833Z,5.10
2018-09-26T06:40:52.788Z,5.10
2018-09-26T06:41:52.816Z,5.00
2018-09-26T06:42:52.765Z,4.60
2018-09-26T06:43:52.752Z,4.30
2018-09-26T06:44:52.756Z,4.60
2018-09-26T06:45:52.732Z,4.50
2018-09-26T06:46:52.725Z,4.60
2018-09-26T06:47:52.742Z,4.90
2018-09-26T06:48:52.704Z,5.20
2018-09-26T06:49:52.688Z,4.80
2018-09-26T06:50:52.695Z,5.30
2018-09-26T06:51:52.665Z,5.90
2018-09-26T06:52:52.679Z,5.80
2018-09-26T06:53:52.705Z,4.80
2018-09-26T06:54:52.633Z,4.40
2018-09-26T06:55:52.622Z,4.80
2018-09-26T06:56:52.613Z,4.80
2018-09-26T06:57:52.631Z,4.90
2018-09-26T06:58:52.604Z,5.00
2018-09-26T06:59:52.578Z,5.70
2018-09-26T07:00:52.569Z,5.80
2018-09-26T07:01:52.560Z,4.80
2018-09-26T07:02:52.567Z,4.50
2018-09-26T07:03:52.541Z,4.20
2018-09-26T07:04:52.525Z,4.70
2018-09-26T07:05:52.576Z,4.90
2018-09-26T07:06:52.511Z,4.30
2018-09-26T07:07:52.521Z,4.50
2018-09-26T07:08:52.487Z,3.90
2018-09-26T07:09:52.478Z,3.60
2018-09-26T07:10:52.473Z,3.80
2018-09-26T07:11:52.459Z,3.30
2018-09-26T07:12:52.477Z,4.10
2018-09-26T07:13:52.482Z,3.50
2018-09-26T07:14:52.415Z,3.40
2018-09-26T07:15:52.418Z,3.10
2018-09-26T07:16:52.404Z,2.80
2018-09-26T07:17:52.394Z,3.20
2018-09-26T07:18:52.440Z,3.50
2018-09-26T07:19:52.374Z,3.10
2018-09-26T07:20:52.393Z,3.30
2018-09-26T07:21:52.346Z,3.40
2018-09-26T07:22:52.331Z,2.80
2018-09-26T07:23:52.338Z,3.10
2018-09-26T07:24:52.355Z,3.00
2018-09-26T07:25:52.299Z,3.10
2018-09-26T07:26:52.288Z,2.70
2018-09-26T07:27:52.275Z,3.10
2018-09-26T07:28:52.266Z,2.80
2018-09-26T07:29:52.276Z,2.50
2018-09-26T07:30:52.246Z,3.10
2018-09-26T07:31:52.314Z,2.90
2018-09-26T07:32:52.265Z,2.80
2018-09-26T07:33:52.217Z,2.60
2018-09-26T07:34:52.238Z,2.50
2018-09-26T07:35:52.201Z,2.40
2018-09-26T07:36:52.181Z,2.50
2018-09-26T07:37:52.200Z,2.50
2018-09-26T07:38:52.156Z,2.40
2018-09-26T07:39:52.172Z,2.60
2018-09-26T07:40:52.158Z,2.50
2018-09-26T07:41:52.123Z,2.70
2018-09-26T07:42:52.127Z,2.60
2018-09-26T07:43:52.127Z,2.70
2018-09-26T07:44:52.098Z,2.70
2018-09-26T07:45:52.182Z,2.40
2018-09-26T07:46:52.068Z,2.60
2018-09-26T07:47:52.064Z,2.60
2018-09-26T07:48:52.047Z,2.70
2018-09-26T07:49:52.071Z,2.80
2018-09-26T07:50:52.044Z,2.80
2018-09-26T07:51:52.040Z,2.70
2018-09-26T07:52:52.041Z,2.60
2018-09-26T07:53:51.996Z,3.00
2018-09-26T07:54:52.014Z,2.60
2018-09-26T07:55:51.977Z,2.80
2018-09-26T07:56:52.006Z,2.80
2018-09-26T07:57:51.975Z,2.70
2018-09-26T07:58:51.940Z,2.50
2018-09-26T07:59:51.932Z,2.30
2018-09-26T08:00:51.922Z,2.00
2018-09-26T08:01:51.946Z,2.40
2018-09-26T08:02:51.925Z,2.30
2018-09-26T08:03:51.885Z,1.90
2018-09-26T08:04:51.874Z,2.20
2018-09-26T08:05:51.909Z,2.20
2018-09-26T08:06:51.850Z,1.90
2018-09-26T08:07:51.897Z,2.00
2018-09-26T08:08:51.834Z,2.20
2018-09-26T08:09:51.820Z,2.10
2018-09-26T08:10:51.808Z,2.10
2018-09-26T08:11:51.820Z,2.40
2018-09-26T08:12:51.817Z,1.90
2018-09-26T08:13:51.773Z,2.00
2018-09-26T08:14:51.763Z,2.00
2018-09-26T08:15:51.756Z,1.80
2018-09-26T08:16:51.746Z,2.00
2018-09-26T08:17:51.753Z,1.90
2018-09-26T08:18:51.757Z,1.70
2018-09-26T08:19:51.721Z,1.90
2018-09-26T08:20:51.698Z,2.10
2018-09-26T08:21:51.694Z,2.00
2018-09-26T08:22:51.699Z,1.90
2018-09-26T08:23:51.771Z,2.00
2018-09-26T08:24:51.664Z,1.70
2018-09-26T08:25:51.706Z,1.80
2018-09-26T08:26:51.648Z,2.00
2018-09-26T08:27:51.679Z,2.00
2018-09-26T08:28:51.611Z,1.80
2018-09-26T08:29:51.611Z,1.90
2018-09-26T08:30:51.600Z,1.80
2018-09-26T08:31:51.578Z,1.70
2018-09-26T08:32:51.580Z,1.60
2018-09-26T08:33:51.581Z,1.60
2018-09-26T08:34:51.549Z,1.70
2018-09-26T08:35:51.541Z,1.70
2018-09-26T08:36:51.526Z,1.50
2018-09-26T08:37:51.543Z,1.70
2018-09-26T08:38:51.503Z,1.80
2018-09-26T08:39:51.494Z,1.60
2018-09-26T08:40:51.504Z,1.60
2018-09-26T08:41:51.485Z,1.70
2018-09-26T08:42:51.461Z,1.80
2018-09-26T08:43:51.543Z,1.60
2018-09-26T08:44:51.435Z,1.50
2018-09-26T08:45:51.446Z,1.70
2018-09-26T08:46:51.415Z,1.60
2018-09-26T08:47:51.406Z,1.30
2018-09-26T08:48:51.416Z,1.60
2018-09-26T08:49:51.385Z,1.50
2018-09-26T08:50:51.370Z,1.60
2018-09-26T08:51:51.361Z,1.40
2018-09-26T08:52:51.381Z,1.50
2018-09-26T08:53:51.433Z,1.30
2018-09-26T08:54:51.330Z,1.50
2018-09-26T08:55:51.316Z,1.20
2018-09-26T08:56:51.307Z,1.50
2018-09-26T08:57:51.303Z,1.50
2018-09-26T08:58:51.299Z,1.40
2018-09-26T08:59:51.376Z,1.20
2018-09-26T09:00:51.265Z,1.20
2018-09-26T09:01:51.250Z,1.50
2018-09-26T09:02:51.293Z,1.40
2018-09-26T09:03:51.251Z,1.50
2018-09-26T09:04:51.222Z,1.60
2018-09-26T09:05:51.238Z,1.40
2018-09-26T09:06:51.264Z,1.40
2018-09-26T09:07:51.220Z,1.50
2018-09-26T09:08:51.216Z,1.50
2018-09-26T09:09:51.168Z,1.50
2018-09-26T09:10:51.183Z,1.30
2018-09-26T09:11:51.151Z,1.60
2018-09-26T09:12:51.191Z,1.20
2018-09-26T09:13:51.133Z,1.30
2018-09-26T09:14:51.252Z,1.40
2018-09-26T09:15:51.132Z,1.20
2018-09-26T09:16:51.115Z,1.20
2018-09-26T09:17:51.130Z,1.40
2018-09-26T09:18:51.078Z,1.40
2018-09-26T09:19:51.070Z,1.30
2018-09-26T09:20:51.044Z,1.20
2018-09-26T09:21:51.033Z,1.20
2018-09-26T09:22:51.063Z,1.40
2018-09-26T09:23:51.142Z,1.00
2018-09-26T09:24:51.001Z,1.20
2018-09-26T09:25:51.009Z,1.20
2018-09-26T09:26:51.000Z,1.40
2018-09-26T09:27:51.051Z,1.40
2018-09-26T09:28:50.974Z,1.20
2018-09-26T09:29:50.971Z,1.40
2018-09-26T09:30:50.937Z,1.40
2018-09-26T09:31:50.946Z,1.50
2018-09-26T09:32:50.917Z,1.40
2018-09-26T09:33:50.932Z,1.10
2018-09-26T09:34:50.900Z,1.20
2018-09-26T09:35:50.894Z,1.10
2018-09-26T09:36:50.873Z,1.20
2018-09-26T09:37:50.858Z,1.40
2018-09-26T09:38:50.884Z,1.20
2018-09-26T09:39:50.848Z,1.30
2018-09-26T09:40:50.829Z,1.30
2018-09-26T09:41:50.849Z,1.20
2018-09-26T09:42:50.803Z,1.40
2018-09-26T09:43:50.821Z,1.20
2018-09-26T09:44:50.806Z,1.20
2018-09-26T09:45:50.776Z,1.30
2018-09-26T09:46:50.825Z,1.20
2018-09-26T09:47:50.762Z,1.30
2018-09-26T09:48:50.756Z,1.10
2018-09-26T09:49:50.771Z,1.30
2018-09-26T09:50:50.717Z,1.00
2018-09-26T09:51:50.739Z,1.30
2018-09-26T09:52:50.699Z,1.20
2018-09-26T09:53:50.695Z,1.30
2018-09-26T09:54:50.693Z,1.10
2018-09-26T09:55:50.684Z,1.30
2018-09-26T09:56:50.686Z,1.30
2018-09-26T09:57:50.652Z,1.20
2018-09-26T09:58:50.657Z,1.30
2018-09-26T09:59:50.621Z,1.10
2018-09-26T10:00:50.658Z,1.30
2018-09-26T10:01:50.600Z,1.40
2018-09-26T10:02:50.641Z,1.30
2018-09-26T10:03:50.657Z,1.20
2018-09-26T10:04:50.572Z,1.10
2018-09-26T10:05:50.555Z,1.60
2018-09-26T10:06:50.597Z,1.50
2018-09-26T10:07:50.533Z,1.30
2018-09-26T10:08:50.595Z,1.70
2018-09-26T10:09:50.514Z,1.30
2018-09-26T10:10:50.499Z,1.30
2018-09-26T10:11:50.591Z,1.50
2018-09-26T10:12:50.481Z,1.40
2018-09-26T10:13:50.468Z,1.30
2018-09-26T10:14:50.457Z,1.20
2018-09-26T10:15:50.453Z,1.70
2018-09-26T10:16:50.434Z,1.60
2018-09-26T10:17:50.448Z,1.30
2018-09-26T10:18:50.420Z,1.30
2018-09-26T10:19:50.412Z,1.40
2018-09-26T10:20:50.395Z,1.60
2018-09-26T10:21:50.404Z,1.40
2018-09-26T10:22:50.429Z,1.50
2018-09-26T10:23:50.359Z,1.20
2018-09-26T10:24:50.359Z,1.40
2018-09-26T10:25:50.351Z,1.20
2018-09-26T10:26:50.326Z,1.20
2018-09-26T10:27:50.316Z,1.50
2018-09-26T10:28:50.334Z,1.10
2018-09-26T10:29:50.291Z,1.10
2018-09-26T10:30:50.293Z,1.40
2018-09-26T10:31:50.270Z,1.30
2018-09-26T10:32:50.258Z,1.00
2018-09-26T10:33:50.273Z,1.20
2018-09-26T10:34:50.319Z,1.30
2018-09-26T10:35:50.225Z,1.30
2018-09-26T10:36:50.242Z,1.30
2018-09-26T10:37:50.211Z,1.40
2018-09-26T10:38:50.231Z,1.30
2018-09-26T10:39:50.186Z,1.20
2018-09-26T10:40:50.209Z,1.50
2018-09-26T10:41:50.160Z,1.30
2018-09-26T10:42:50.166Z,1.30
2018-09-26T10:43:50.138Z,1.20
2018-09-26T10:44:50.175Z,1.20
2018-09-26T10:45:50.116Z,1.20
2018-09-26T10:46:50.116Z,1.30
2018-09-26T10:47:50.095Z,1.00
2018-09-26T10:48:50.113Z,1.40
2018-09-26T10:49:50.076Z,1.30
2018-09-26T10:50:50.068Z,1.40
2018-09-26T10:51:50.055Z,0.90
2018-09-26T10:52:50.041Z,1.30
2018-09-26T10:53:50.028Z,1.00
2018-09-26T10:54:50.067Z,1.30
2018-09-26T10:55:50.006Z,1.50
2018-09-26T10:56:49.998Z,1.30
2018-09-26T10:57:49.988Z,1.30
2018-09-26T10:58:49.977Z,1.30
2018-09-26T10:59:49.988Z,1.30
2018-09-26T11:00:49.953Z,1.00
2018-09-26T11:01:49.957Z,1.30
2018-09-26T11:02:49.934Z,1.30
2018-09-26T11:03:50.024Z,1.10
2018-09-26T11:04:49.934Z,1.00
2018-09-26T11:05:49.938Z,1.20
2018-09-26T11:06:49.889Z,1.20
2018-09-26T11:07:49.881Z,1.40
2018-09-26T11:08:49.911Z,1.40
2018-09-26T11:09:49.903Z,1.40
2018-09-26T11:10:49.847Z,1.20
2018-09-26T11:11:49.844Z,1.20
2018-09-26T11:12:49.826Z,1.50
2018-09-26T11:13:49.815Z,1.40
2018-09-26T11:14:49.830Z,1.20
2018-09-26T11:15:49.853Z,1.30
2018-09-26T11:16:49.801Z,1.10
2018-09-26T11:17:49.787Z,1.10
2018-09-26T11:18:49.782Z,1.10
2018-09-26T11:19:49.789Z,1.10
2018-09-26T11:20:49.737Z,1.20
2018-09-26T11:21:49.726Z,1.00
2018-09-26T11:22:49.720Z,1.30
2018-09-26T11:23:49.718Z,1.00
2018-09-26T11:24:49.696Z,1.20
2018-09-26T11:25:49.725Z,1.00
2018-09-26T11:26:49.670Z,1.10
2018-09-26T11:27:49.682Z,1.20
2018-09-26T11:28:49.669Z,1.10
2018-09-26T11:29:49.643Z,1.10
2018-09-26T11:30:49.663Z,1.20
2018-09-26T11:31:49.693Z,1.20
2018-09-26T11:32:49.613Z,1.00
2018-09-26T11:33:49.692Z,1.10
2018-09-26T11:34:49.594Z,0.90
2018-09-26T11:35:49.627Z,1.20
2018-09-26T11:36:49.569Z,1.10
2018-09-26T11:37:49.565Z,1.20
2018-09-26T11:38:49.545Z,1.50
2018-09-26T11:39:49.544Z,0.80
2018-09-26T11:40:49.537Z,1.00
2018-09-26T11:41:49.539Z,1.20
2018-09-26T11:42:49.501Z,1.00
2018-09-26T11:43:49.489Z,1.10
2018-09-26T11:44:49.555Z,1.00
2018-09-26T11:45:49.468Z,1.10
2018-09-26T11:46:49.483Z,1.00
2018-09-26T11:47:49.499Z,1.00
2018-09-26T11:48:49.460Z,1.00
2018-09-26T11:49:49.422Z,1.30
2018-09-26T11:50:49.422Z,0.90
2018-09-26T11:51:49.430Z,1.00
2018-09-26T11:52:49.394Z,1.10
2018-09-26T11:53:49.394Z,1.20
2018-09-26T11:54:49.386Z,1.00
2018-09-26T11:55:49.361Z,0.90
2018-09-26T11:56:49.349Z,1.00
2018-09-26T11:57:49.361Z,1.00
2018-09-26T11:58:49.393Z,1.10
2018-09-26T11:59:49.315Z,1.10
2018-09-26T12:00:49.320Z,1.10
2018-09-26T12:01:49.344Z,0.80
2018-09-26T12:02:49.318Z,1.00
2018-09-26T12:03:49.292Z,1.10
2018-09-26T12:04:49.261Z,1.10
2018-09-26T12:05:49.252Z,1.00
2018-09-26T12:06:49.257Z,0.90
2018-09-26T12:07:49.253Z,1.10
2018-09-26T12:08:49.216Z,1.00
2018-09-26T12:09:49.209Z,1.20
2018-09-26T12:10:49.207Z,1.00
2018-09-26T12:11:49.200Z,1.10
2018-09-26T12:12:49.200Z,1.00
2018-09-26T12:13:49.229Z,1.00
2018-09-26T12:14:49.172Z,1.00
2018-09-26T12:15:49.142Z,1.10
2018-09-26T12:16:49.140Z,1.00
2018-09-26T12:17:49.146Z,1.00
2018-09-26T12:18:49.175Z,1.10
2018-09-26T12:19:49.101Z,1.10
2018-09-26T12:20:49.128Z,1.20
2018-09-26T12:21:49.186Z,1.00
2018-09-26T12:22:49.089Z,1.20
2018-09-26T12:23:49.055Z,1.10
2018-09-26T12:24:49.046Z,1.00
2018-09-26T12:25:49.039Z,1.10
2018-09-26T12:26:49.028Z,1.10
2018-09-26T12:27:49.183Z,1.10
2018-09-26T12:28:48.998Z,1.00
2018-09-26T12:29:48.991Z,0.90
2018-09-26T12:30:48.984Z,0.90
2018-09-26T12:31:49.021Z,1.00
2018-09-26T12:32:48.975Z,1.00
2018-09-26T12:33:48.968Z,1.00
2018-09-26T12:34:48.953Z,0.90
2018-09-26T12:35:48.972Z,1.20
2018-09-26T12:36:48.948Z,1.10
2018-09-26T12:37:48.907Z,1.00
2018-09-26T12:38:48.921Z,0.80
2018-09-26T12:39:48.902Z,1.00
2018-09-26T12:40:48.872Z,1.20
2018-09-26T12:41:48.864Z,1.10
2018-09-26T12:42:48.942Z,0.90
2018-09-26T12:43:48.878Z,1.10
2018-09-26T12:44:48.828Z,1.00
2018-09-26T12:45:48.817Z,1.10
2018-09-26T12:46:48.832Z,1.00
2018-09-26T12:47:48.797Z,1.00
2018-09-26T12:48:48.785Z,0.90
2018-09-26T12:49:48.824Z,1.20
2018-09-26T12:50:48.772Z,1.10
2018-09-26T12:51:48.760Z,1.00
2018-09-26T12:52:48.745Z,0.90
2018-09-26T12:53:48.794Z,0.90
2018-09-26T12:54:48.770Z,0.90
2018-09-26T12:55:48.712Z,0.80
2018-09-26T12:56:48.701Z,0.70
2018-09-26T12:57:48.693Z,0.90
2018-09-26T12:58:48.680Z,1.00
2018-09-26T12:59:48.698Z,1.10
2018-09-26T13:00:48.744Z,1.00
2018-09-26T13:01:48.644Z,0.90
2018-09-26T13:02:48.835Z,1.00
2018-09-26T13:03:48.658Z,0.80
2018-09-26T13:04:48.837Z,0.70
2018-09-26T13:05:49.457Z,0.80
2018-09-26T13:06:48.675Z,0.90
2018-09-26T13:07:48.579Z,0.80
2018-09-26T13:08:48.571Z,0.80
2018-09-26T13:09:48.591Z,0.90
2018-09-26T13:10:48.550Z,0.90
2018-09-26T13:11:48.555Z,0.90
2018-09-26T13:12:48.527Z,1.00
2018-09-26T13:13:48.564Z,1.10
2018-09-26T13:14:48.513Z,0.90
2018-09-26T13:15:48.528Z,1.00
2018-09-26T13:16:48.493Z,0.90
2018-09-26T13:17:48.486Z,0.90
2018-09-26T13:18:48.493Z,1.10